NCAR-RAP Real-Time Weather Data

Output produced by METARs form (10 April 2020  07:09 UTC)
found at http://weather.rap.ucar.edu/surface/
 
KCLT 100652Z 33008KT 10SM SCT250 13/M04 A2968 RMK AO2 SLP044 T01331044